Time;durP1;ratioP1;P1;durP2;ratioP2;P2;SDS_P1;SDS_P2;PMS_P1;PMS_P2;Temp;Humidity;BMP_temperature;BMP_pressure;BME280_temperature;BME280_humidity;BME280_pressure;Samples;Min_cycle;Max_cycle;Signal;HPM_P1;HPM_P2
2021/01/11 00:02:00;;;;;;;31.17;13.27;;;-2.50;99.90;;;;;;4991870;28;20195;-64
2021/01/11 00:04:26;;;;;;;25.60;13.45;;;-2.50;99.90;;;;;;4991383;28;20431;-63
2021/01/11 00:06:52;;;;;;;25.77;12.50;;;-2.50;99.90;;;;;;4991310;28;20195;-63
2021/01/11 00:09:18;;;;;;;24.53;12.40;;;-2.50;99.90;;;;;;4991628;28;20439;-63
2021/01/11 00:11:44;;;;;;;23.47;12.00;;;-2.50;99.90;;;;;;4991407;28;20442;-64
2021/01/11 00:14:09;;;;;;;21.93;11.87;;;-2.50;99.90;;;;;;4992905;28;20661;-64
2021/01/11 00:16:35;;;;;;;24.27;13.83;;;-2.50;99.90;;;;;;4990519;28;20191;-63
2021/01/11 00:19:01;;;;;;;27.63;13.93;;;-2.50;99.90;;;;;;4988780;28;20920;-63
2021/01/11 00:21:28;;;;;;;27.57;13.80;;;-2.50;99.90;;;;;;5023648;28;20190;-63
2021/01/11 00:23:54;;;;;;;28.83;13.60;;;-2.50;99.90;;;;;;4991757;28;20453;-63
2021/01/11 00:26:19;;;;;;;25.70;13.77;;;-2.50;99.90;;;;;;4991320;28;20192;-63
2021/01/11 00:28:45;;;;;;;26.30;12.80;;;-2.50;99.90;;;;;;4991724;28;20203;-63
2021/01/11 00:31:12;;;;;;;20.57;12.53;;;-2.50;99.90;;;;;;4991341;28;20180;-63
2021/01/11 00:33:38;;;;;;;26.48;12.90;;;-2.60;99.90;;;;;;4990364;28;20498;-63
2021/01/11 00:36:10;;;;;;;23.45;11.75;;;-2.60;99.90;;;;;;4991703;28;20188;-63
2021/01/11 00:38:36;;;;;;;21.40;12.35;;;-2.60;99.90;;;;;;4982412;28;20198;-64
2021/01/11 00:41:01;;;;;;;31.47;13.10;;;-2.60;99.90;;;;;;4990851;28;20236;-63
2021/01/11 00:43:27;;;;;;;27.83;14.23;;;-2.60;99.90;;;;;;4992312;28;20194;-63
2021/01/11 00:45:53;;;;;;;22.90;11.87;;;-2.70;99.90;;;;;;4990769;28;20206;-62
2021/01/11 00:48:18;;;;;;;23.50;12.93;;;-2.70;99.90;;;;;;4990454;28;20187;-63
2021/01/11 00:50:44;;;;;;;23.10;13.10;;;-2.70;99.90;;;;;;4991106;28;20206;-63
2021/01/11 00:53:09;;;;;;;27.10;12.97;;;-2.70;99.90;;;;;;4991143;28;20204;-63
2021/01/11 00:55:35;;;;;;;28.83;13.13;;;-2.70;99.90;;;;;;4990489;28;20188;-63
2021/01/11 00:58:01;;;;;;;26.33;12.03;;;-2.60;99.90;;;;;;4991506;28;20196;-63
2021/01/11 01:00:26;;;;;;;28.93;13.50;;;-2.70;99.90;;;;;;5005550;28;20275;-63
2021/01/11 01:02:52;;;;;;;26.90;12.30;;;-2.70;99.90;;;;;;4991029;28;20250;-64
2021/01/11 01:05:18;;;;;;;25.30;13.53;;;-2.70;99.90;;;;;;4989900;28;20191;-63
2021/01/11 01:07:44;;;;;;;21.93;12.53;;;-2.80;99.90;;;;;;4991414;28;20192;-64
2021/01/11 01:10:13;;;;;;;25.13;13.80;;;-2.80;99.90;;;;;;4989470;28;20439;-63
2021/01/11 01:12:40;;;;;;;25.73;12.02;;;-2.90;99.90;;;;;;4990499;28;20502;-63
2021/01/11 01:15:07;;;;;;;25.80;14.43;;;-2.90;99.90;;;;;;4990574;28;20238;-63
2021/01/11 01:17:36;;;;;;;27.05;13.80;;;-2.90;99.90;;;;;;4990218;28;20186;-63
2021/01/11 01:20:08;;;;;;;25.45;12.30;;;-2.90;99.90;;;;;;4990143;28;20681;-63
2021/01/11 01:22:34;;;;;;;24.55;13.60;;;-2.90;99.90;;;;;;4990492;28;20188;-63
2021/01/11 01:24:59;;;;;;;26.10;13.40;;;-2.90;99.90;;;;;;4990651;28;20195;-64
2021/01/11 01:27:25;;;;;;;22.97;12.40;;;-2.90;99.90;;;;;;4990119;28;20226;-64
2021/01/11 01:29:50;;;;;;;22.00;12.67;;;-2.90;99.90;;;;;;4990404;28;20282;-64
2021/01/11 01:32:16;;;;;;;24.80;13.20;;;-2.90;99.90;;;;;;4990502;28;20246;-63
2021/01/11 01:34:42;;;;;;;27.07;12.57;;;-2.90;99.90;;;;;;4989106;28;20208;-63
2021/01/11 01:37:07;;;;;;;23.93;12.10;;;-2.90;99.90;;;;;;4989784;28;20255;-64
2021/01/11 01:39:33;;;;;;;22.70;13.10;;;-2.90;99.90;;;;;;4981338;28;20262;-65
2021/01/11 01:41:58;;;;;;;23.83;12.73;;;-3.00;99.90;;;;;;4989875;28;20188;-63
2021/01/11 01:44:24;;;;;;;23.93;11.53;;;-3.00;99.90;;;;;;4989288;28;20272;-63
2021/01/11 01:46:49;;;;;;;19.77;10.77;;;-3.00;99.90;;;;;;4989041;28;20194;-63
2021/01/11 01:49:15;;;;;;;19.93;12.20;;;-3.00;99.90;;;;;;4989571;28;20202;-64
2021/01/11 01:51:42;;;;;;;21.80;11.60;;;-3.00;99.90;;;;;;4989316;28;20191;-63
2021/01/11 01:54:08;;;;;;;19.98;12.13;;;-3.10;99.90;;;;;;5004828;28;20184;-65
2021/01/11 01:56:34;;;;;;;22.42;11.75;;;-3.00;99.90;;;;;;4990289;28;20184;-64
2021/01/11 01:58:59;;;;;;;24.47;12.27;;;-3.10;99.90;;;;;;4990211;28;20199;-64
2021/01/11 02:01:25;;;;;;;18.30;12.00;;;-3.00;99.90;;;;;;4987049;28;20291;-65
2021/01/11 02:03:51;;;;;;;20.40;13.10;;;-3.00;99.90;;;;;;4989988;28;20497;-64
2021/01/11 02:06:17;;;;;;;21.53;11.33;;;-2.90;99.90;;;;;;4989654;28;20579;-64
2021/01/11 02:08:48;;;;;;;22.92;13.63;;;-2.90;99.90;;;;;;4987231;28;20442;-64
2021/01/11 02:11:28;;;;;;;25.08;12.95;;;-3.00;99.90;;;;;;4989412;28;20274;-64
2021/01/11 02:14:24;;;;;;;19.27;11.80;;;-3.00;99.90;;;;;;4988542;28;20294;-65
2021/01/11 02:17:05;;;;;;;22.35;12.32;;;-3.00;99.90;;;;;;4984385;28;20193;-64
2021/01/11 02:19:49;;;;;;;24.55;13.75;;;-2.90;99.90;;;;;;4984991;28;20188;-64
2021/01/11 02:22:56;;;;;;;20.73;12.15;;;-3.00;99.90;;;;;;4989768;28;20246;-64
2021/01/11 02:25:40;;;;;;;23.65;12.05;;;-2.90;99.90;;;;;;4995360;28;20208;-64
2021/01/11 02:28:24;;;;;;;23.80;12.63;;;-2.90;99.90;;;;;;4989517;28;20187;-65
2021/01/11 02:30:53;;;;;;;21.85;12.15;;;-2.90;99.90;;;;;;4988273;28;20635;-64
2021/01/11 02:33:19;;;;;;;25.38;13.00;;;-2.90;99.90;;;;;;4988515;28;20302;-67
2021/01/11 02:35:47;;;;;;;21.20;11.70;;;-2.90;99.90;;;;;;4988289;28;20275;-64
2021/01/11 02:38:18;;;;;;;24.88;12.85;;;-3.00;99.90;;;;;;4989522;28;20878;-64
2021/01/11 02:40:44;;;;;;;21.52;13.02;;;-3.00;99.90;;;;;;4989412;28;20289;-64
2021/01/11 02:43:10;;;;;;;22.47;12.53;;;-3.00;99.90;;;;;;4986901;28;20184;-64
2021/01/11 02:45:36;;;;;;;22.63;12.07;;;-3.10;99.90;;;;;;4989511;28;20266;-65
2021/01/11 02:48:13;;;;;;;21.25;13.02;;;-3.00;99.90;;;;;;4988638;28;20662;-65
2021/01/11 02:50:50;;;;;;;26.55;12.30;;;-3.10;99.90;;;;;;4989332;28;20587;-64
2021/01/11 02:53:23;;;;;;;20.55;12.07;;;-3.10;99.90;;;;;;4988532;28;20768;-64
2021/01/11 02:55:55;;;;;;;24.33;12.65;;;-3.10;99.90;;;;;;4989691;28;20186;-64
2021/01/11 02:58:44;;;;;;;23.27;13.13;;;-3.20;99.90;;;;;;4988975;28;20172;-64
2021/01/11 03:01:15;;;;;;;21.25;12.38;;;-3.20;99.90;;;;;;4988888;28;20194;-64
2021/01/11 03:03:41;;;;;;;26.15;15.23;;;-3.20;99.90;;;;;;4988294;28;20344;-64
2021/01/11 03:06:11;;;;;;;26.10;13.50;;;-3.20;99.90;;;;;;4988726;28;20206;-64
2021/01/11 03:08:37;;;;;;;25.30;13.50;;;-3.20;99.90;;;;;;4989276;28;20658;-64
2021/01/11 03:11:03;;;;;;;26.50;12.93;;;-3.30;99.90;;;;;;4987226;28;20220;-65
2021/01/11 03:13:28;;;;;;;25.80;12.07;;;-3.30;99.90;;;;;;4988870;28;20204;-64
2021/01/11 03:15:54;;;;;;;19.57;11.87;;;-3.30;99.90;;;;;;4989495;28;20654;-65
2021/01/11 03:18:19;;;;;;;20.70;12.30;;;-3.30;99.90;;;;;;4987953;28;20195;-64
2021/01/11 03:20:45;;;;;;;22.20;12.03;;;-3.30;99.90;;;;;;4985868;28;20197;-64
2021/01/11 03:23:11;;;;;;;19.20;11.37;;;-3.30;99.90;;;;;;4988385;28;20222;-65
2021/01/11 03:25:36;;;;;;;21.27;12.60;;;-3.30;99.90;;;;;;4986351;28;20251;-65
2021/01/11 03:28:03;;;;;;;21.30;12.33;;;-3.20;99.90;;;;;;4987750;28;20188;-65
2021/01/11 03:30:29;;;;;;;21.10;13.05;;;-3.40;99.90;;;;;;4988419;28;20242;-64
2021/01/11 03:32:55;;;;;;;23.15;12.48;;;-3.40;99.90;;;;;;4987220;28;20240;-65
2021/01/11 03:35:20;;;;;;;20.37;12.63;;;-3.40;99.90;;;;;;4992017;28;20219;-64
2021/01/11 03:37:46;;;;;;;20.47;12.50;;;-3.40;99.90;;;;;;4991829;28;20190;-66
2021/01/11 03:40:12;;;;;;;20.37;12.17;;;-3.40;99.90;;;;;;4991469;28;20227;-64
2021/01/11 03:42:39;;;;;;;19.98;11.77;;;-3.50;99.90;;;;;;4991066;28;20262;-64
2021/01/11 03:45:09;;;;;;;19.63;11.30;;;-3.50;99.90;;;;;;4992710;28;20188;-64
2021/01/11 03:47:35;;;;;;;23.65;12.07;;;-3.60;99.90;;;;;;4990344;28;20192;-64
2021/01/11 03:50:04;;;;;;;19.98;12.55;;;-3.60;99.90;;;;;;4992745;28;20180;-64
2021/01/11 03:52:33;;;;;;;22.25;11.27;;;-3.60;99.90;;;;;;4992930;28;20196;-65
2021/01/11 03:54:59;;;;;;;19.73;11.43;;;-3.60;99.90;;;;;;4991467;28;20196;-64
2021/01/11 03:57:29;;;;;;;19.80;11.70;;;-3.60;99.90;;;;;;4992799;28;20593;-64
2021/01/11 03:59:54;;;;;;;20.10;11.55;;;-3.60;99.90;;;;;;4992656;28;20508;-65
2021/01/11 04:02:20;;;;;;;22.23;12.07;;;-3.60;99.90;;;;;;4991866;28;20200;-65
2021/01/11 04:04:46;;;;;;;20.52;11.23;;;-3.70;99.90;;;;;;4992011;28;20199;-64
2021/01/11 04:07:11;;;;;;;22.60;12.37;;;-3.70;99.90;;;;;;4990618;28;20541;-64
2021/01/11 04:09:37;;;;;;;25.10;12.40;;;-3.70;99.90;;;;;;4992506;28;20514;-64
2021/01/11 04:12:03;;;;;;;28.47;14.87;;;-3.70;99.90;;;;;;4984622;28;20216;-65
2021/01/11 04:14:28;;;;;;;22.17;13.57;;;-3.70;99.90;;;;;;4992775;28;20176;-65
2021/01/11 04:16:54;;;;;;;25.03;13.00;;;-3.70;99.90;;;;;;4991060;28;20530;-65
2021/01/11 04:19:20;;;;;;;21.80;12.00;;;-3.70;99.90;;;;;;4990313;28;20195;-65
2021/01/11 04:21:45;;;;;;;21.77;12.73;;;-3.70;99.90;;;;;;4992315;28;20638;-64
2021/01/11 04:24:11;;;;;;;25.23;12.47;;;-3.80;99.90;;;;;;4992339;28;20248;-64
2021/01/11 04:26:37;;;;;;;23.63;12.30;;;-3.70;99.90;;;;;;4991393;28;20184;-64
2021/01/11 04:29:02;;;;;;;21.97;12.13;;;-3.70;99.90;;;;;;4991020;28;20506;-65
2021/01/11 04:31:28;;;;;;;22.10;12.47;;;-3.80;99.90;;;;;;4989389;28;20740;-64
2021/01/11 04:33:53;;;;;;;24.37;12.97;;;-3.80;99.90;;;;;;4990217;28;20214;-64
2021/01/11 04:36:19;;;;;;;22.93;13.07;;;-3.80;99.90;;;;;;4990730;28;20238;-64
2021/01/11 04:38:45;;;;;;;22.93;12.07;;;-3.90;99.90;;;;;;4990711;28;20195;-65
2021/01/11 04:41:11;;;;;;;23.97;12.60;;;-3.90;99.90;;;;;;4990853;28;20723;-64
2021/01/11 04:43:45;;;;;;;23.80;13.07;;;-4.00;99.90;;;;;;5004245;28;20192;-64
2021/01/11 04:46:13;;;;;;;22.50;13.23;;;-4.00;99.90;;;;;;4976391;28;20289;-65
2021/01/11 04:48:41;;;;;;;25.05;12.45;;;-4.10;99.90;;;;;;4989892;28;20635;-64
2021/01/11 04:51:07;;;;;;;22.77;12.02;;;-4.10;99.90;;;;;;4991562;28;20191;-65
2021/01/11 04:53:34;;;;;;;24.10;11.60;;;-4.10;99.90;;;;;;4989461;28;20230;-65
2021/01/11 04:56:01;;;;;;;24.50;12.38;;;-4.10;99.90;;;;;;4987849;28;20646;-65
2021/01/11 04:58:43;;;;;;;24.33;12.82;;;-4.10;99.90;;;;;;4989652;28;20203;-65
2021/01/11 05:01:12;;;;;;;22.30;12.70;;;-4.10;99.90;;;;;;4989522;28;20230;-65
2021/01/11 05:03:38;;;;;;;25.30;13.00;;;-4.00;99.90;;;;;;4985198;28;20417;-65
2021/01/11 05:06:04;;;;;;;26.73;13.90;;;-4.00;99.90;;;;;;4989964;28;20196;-65
2021/01/11 05:08:30;;;;;;;22.03;13.50;;;-4.10;99.90;;;;;;4989536;28;20414;-65
2021/01/11 05:10:55;;;;;;;22.83;13.20;;;-4.00;99.90;;;;;;4989980;28;20470;-65
2021/01/11 05:13:21;;;;;;;22.90;12.63;;;-4.00;99.90;;;;;;5004696;28;20239;-65
2021/01/11 05:15:47;;;;;;;26.93;13.60;;;-4.10;99.90;;;;;;4985080;28;20655;-67
2021/01/11 05:18:13;;;;;;;24.53;13.27;;;-4.00;99.90;;;;;;4981287;28;20191;-67
2021/01/11 05:20:39;;;;;;;26.63;14.90;;;-4.00;99.90;;;;;;4981714;28;20274;-67
2021/01/11 05:23:15;;;;;;;82.77;48.50;;;-4.00;99.90;;;;;;4980311;28;20775;-67
2021/01/11 05:25:43;;;;;;;44.33;32.63;;;-4.00;99.90;;;;;;4982067;28;20271;-67
2021/01/11 05:28:10;;;;;;;26.67;15.20;;;-4.00;99.90;;;;;;4980987;28;20238;-66
2021/01/11 05:30:41;;;;;;;23.45;13.75;;;-4.00;99.90;;;;;;4981091;28;21023;-67
2021/01/11 05:33:18;;;;;;;29.95;13.63;;;-4.00;99.90;;;;;;4979889;28;20235;-67
2021/01/11 05:35:45;;;;;;;27.92;14.18;;;-4.00;99.90;;;;;;4979700;28;20203;-67
2021/01/11 05:38:19;;;;;;;20.92;12.90;;;-4.00;99.90;;;;;;4981842;28;20192;-67
2021/01/11 05:40:46;;;;;;;26.60;15.10;;;-4.00;99.90;;;;;;4984333;28;20243;-67
2021/01/11 05:43:20;;;;;;;27.27;13.63;;;-4.00;99.90;;;;;;4982296;28;20192;-66
2021/01/11 05:45:46;;;;;;;20.15;11.95;;;-4.00;99.90;;;;;;4987703;28;20605;-67
2021/01/11 05:48:14;;;;;;;21.52;13.35;;;-4.00;99.90;;;;;;4989960;28;20187;-67
2021/01/11 05:50:48;;;;;;;22.15;12.88;;;-4.00;99.90;;;;;;4990031;28;20262;-66
2021/01/11 05:53:21;;;;;;;23.67;13.45;;;-4.00;99.90;;;;;;4991001;28;20558;-66
2021/01/11 05:55:48;;;;;;;23.52;13.25;;;-4.00;99.90;;;;;;4988894;28;20199;-67
2021/01/11 05:58:15;;;;;;;23.92;13.80;;;-4.00;99.90;;;;;;4990881;28;20263;-66
2021/01/11 06:00:41;;;;;;;25.60;13.80;;;-4.00;99.90;;;;;;4989202;28;20213;-67
2021/01/11 06:03:09;;;;;;;26.38;13.15;;;-4.00;99.90;;;;;;5004389;28;20196;-66
2021/01/11 06:05:35;;;;;;;26.52;13.40;;;-4.10;99.90;;;;;;4989656;28;20315;-66
2021/01/11 06:08:02;;;;;;;23.08;13.50;;;-4.00;99.90;;;;;;4989345;28;20179;-66
2021/01/11 06:10:28;;;;;;;26.20;14.48;;;-4.00;99.90;;;;;;4989396;28;20180;-66
2021/01/11 06:12:54;;;;;;;22.70;12.57;;;-4.00;99.90;;;;;;4989718;28;20204;-66
2021/01/11 06:15:28;;;;;;;25.43;14.07;;;-4.00;99.90;;;;;;4988612;28;20183;-66
2021/01/11 06:17:55;;;;;;;22.77;13.43;;;-4.10;99.90;;;;;;4990489;28;20180;-66
2021/01/11 06:20:29;;;;;;;26.35;15.20;;;-4.00;99.90;;;;;;4988634;28;20179;-66
2021/01/11 06:22:57;;;;;;;25.25;13.85;;;-4.00;99.90;;;;;;4990509;28;20269;-66
2021/01/11 06:25:28;;;;;;;24.42;14.10;;;-4.00;99.90;;;;;;4989438;28;20187;-66
2021/01/11 06:28:07;;;;;;;20.60;13.60;;;-4.00;99.90;;;;;;4990197;28;20666;-66
2021/01/11 06:30:33;;;;;;;22.35;13.30;;;-3.90;99.90;;;;;;4981517;28;20183;-66
2021/01/11 06:33:09;;;;;;;20.27;13.07;;;-3.90;99.90;;;;;;5004375;28;20574;-66
2021/01/11 06:35:43;;;;;;;22.20;12.40;;;-3.90;99.90;;;;;;4992844;28;20194;-66
2021/01/11 06:38:29;;;;;;;19.60;12.15;;;-4.00;99.90;;;;;;4989283;28;20184;-66
2021/01/11 06:41:09;;;;;;;21.73;13.57;;;-4.00;99.90;;;;;;4989684;28;20231;-66
2021/01/11 06:43:38;;;;;;;24.48;14.00;;;-4.10;99.90;;;;;;5005118;28;20195;-65
2021/01/11 06:46:04;;;;;;;24.02;12.93;;;-4.20;99.90;;;;;;4988602;28;20802;-65
2021/01/11 06:48:33;;;;;;;28.17;15.40;;;-4.20;99.90;;;;;;4989793;28;20290;-65
2021/01/11 06:51:05;;;;;;;25.10;14.13;;;-4.10;99.90;;;;;;4988403;28;20199;-65
2021/01/11 06:53:31;;;;;;;24.05;14.30;;;-4.20;99.90;;;;;;4990065;28;20246;-65
2021/01/11 06:56:10;;;;;;;27.27;15.10;;;-4.20;99.90;;;;;;4988735;28;20184;-65
2021/01/11 06:58:38;;;;;;;18.92;12.82;;;-4.20;99.90;;;;;;4990018;28;20203;-66
2021/01/11 07:01:11;;;;;;;28.80;14.68;;;-4.20;99.90;;;;;;4987391;28;20183;-66
2021/01/11 07:03:47;;;;;;;24.38;12.10;;;-4.10;99.90;;;;;;4989777;28;20200;-66
2021/01/11 07:06:32;;;;;;;26.38;14.35;;;-4.10;99.90;;;;;;4988092;28;20190;-66
2021/01/11 07:09:12;;;;;;;21.42;14.07;;;-4.00;99.90;;;;;;4981520;28;20192;-67
2021/01/11 07:11:39;;;;;;;21.45;13.48;;;-4.10;99.90;;;;;;4985475;28;20186;-66
2021/01/11 07:14:06;;;;;;;28.27;15.45;;;-4.10;99.90;;;;;;4989823;28;20218;-65
2021/01/11 07:16:45;;;;;;;21.50;13.23;;;-4.00;99.90;;;;;;4988418;28;20628;-66
2021/01/11 07:19:13;;;;;;;25.52;14.60;;;-4.00;99.90;;;;;;4989628;28;20184;-66
2021/01/11 07:21:40;;;;;;;26.38;14.43;;;-3.90;99.90;;;;;;4987434;28;20180;-66
2021/01/11 07:24:06;;;;;;;22.90;14.20;;;-3.80;99.90;;;;;;4989617;28;20677;-66
2021/01/11 07:26:34;;;;;;;27.58;14.00;;;-3.80;99.90;;;;;;4988491;28;20242;-66
2021/01/11 07:29:09;;;;;;;27.98;13.68;;;-3.80;99.90;;;;;;4988110;28;20184;-66
2021/01/11 07:31:44;;;;;;;25.98;13.45;;;-3.80;99.90;;;;;;4987904;28;20523;-65
2021/01/11 07:34:11;;;;;;;27.08;14.98;;;-3.70;99.90;;;;;;4987547;28;20234;-65
2021/01/11 07:36:45;;;;;;;22.95;13.38;;;-3.70;99.90;;;;;;4983514;28;20665;-67
2021/01/11 07:39:15;;;;;;;26.73;14.10;;;-3.60;99.90;;;;;;4986122;28;20191;-67
2021/01/11 07:41:46;;;;;;;24.40;13.82;;;-3.60;99.90;;;;;;4988889;28;20199;-67
2021/01/11 07:44:22;;;;;;;23.30;13.82;;;-3.50;99.90;;;;;;4988907;28;20180;-67
2021/01/11 07:47:04;;;;;;;19.55;12.77;;;-3.50;99.90;;;;;;4988873;28;20838;-67
2021/01/11 07:49:37;;;;;;;24.80;13.88;;;-3.50;99.90;;;;;;4982221;28;20576;-67
2021/01/11 07:52:17;;;;;;;20.83;13.73;;;-3.40;99.90;;;;;;4988763;28;20253;-67
2021/01/11 07:54:44;;;;;;;22.40;13.57;;;-3.30;99.90;;;;;;4976965;28;20180;-67
2021/01/11 07:57:11;;;;;;;24.17;13.90;;;-3.30;99.90;;;;;;4989226;28;20230;-67
2021/01/11 07:59:37;;;;;;;24.60;14.32;;;-3.30;99.90;;;;;;4988555;28;20180;-68
2021/01/11 08:02:08;;;;;;;26.88;16.38;;;-3.10;99.90;;;;;;4989043;28;20709;-67
2021/01/11 08:04:38;;;;;;;16.80;11.73;;;-3.10;98.20;;;;;;4988810;28;20673;-67
2021/01/11 08:07:09;;;;;;;19.30;12.70;;;-3.10;96.60;;;;;;4988746;28;20650;-66
2021/01/11 08:09:35;;;;;;;23.02;13.07;;;-3.00;98.40;;;;;;4988649;28;20270;-67
2021/01/11 08:12:17;;;;;;;19.08;11.82;;;-2.90;99.90;;;;;;4988809;28;20311;-67
2021/01/11 08:14:47;;;;;;;22.25;13.07;;;-2.80;99.80;;;;;;4988714;28;20270;-67
2021/01/11 08:17:22;;;;;;;21.00;13.50;;;-2.60;99.90;;;;;;4988893;28;20180;-67
2021/01/11 08:19:49;;;;;;;24.25;13.75;;;-2.40;99.90;;;;;;4989753;28;20187;-69
2021/01/11 08:22:18;;;;;;;22.55;14.43;;;-2.10;99.90;;;;;;4992266;28;20187;-68
2021/01/11 08:24:47;;;;;;;23.17;14.27;;;-1.70;99.90;;;;;;4991412;28;20180;-68
2021/01/11 08:27:46;;;;;;;19.83;12.60;;;-1.20;99.90;;;;;;4992194;28;20184;-67
2021/01/11 08:30:15;;;;;;;28.15;13.50;;;-0.80;99.90;;;;;;5004923;28;20290;-68
2021/01/11 08:32:42;;;;;;;21.30;12.60;;;-0.30;97.50;;;;;;4989493;28;20208;-66
2021/01/11 08:35:12;;;;;;;17.83;11.77;;;0.20;82.30;;;;;;4985154;28;20173;-66
2021/01/11 08:37:39;;;;;;;18.05;11.20;;;0.50;24.90;;;;;;4990899;28;20588;-66
2021/01/11 08:40:06;;;;;;;17.00;10.95;;;0.80;8.50;;;;;;4990908;28;20940;-66
2021/01/11 08:42:33;;;;;;;15.07;11.02;;;1.00;1.00;;;;;;4981103;28;20190;-66
2021/01/11 08:45:33;;;;;;;15.55;11.30;;;1.60;1.00;;;;;;4990986;28;20197;-65
2021/01/11 08:47:59;;;;;;;13.02;10.18;;;2.10;1.00;;;;;;4982007;28;20651;-66
2021/01/11 08:50:25;;;;;;;12.45;10.07;;;2.60;1.00;;;;;;4993719;28;20238;-66
2021/01/11 08:52:51;;;;;;;14.40;10.20;;;2.90;1.00;;;;;;4991170;28;20674;-66
2021/01/11 08:55:18;;;;;;;12.90;10.00;;;3.30;1.00;;;;;;4990405;28;20184;-65
2021/01/11 08:57:58;;;;;;;13.30;9.90;;;3.70;99.90;;;;;;4991023;28;20172;-66
2021/01/11 09:00:24;;;;;;;14.35;10.90;;;3.80;1.00;;;;;;4990855;28;20294;-65
2021/01/11 09:02:50;;;;;;;11.77;9.90;;;4.20;99.90;;;;;;4991098;28;21011;-65
2021/01/11 09:05:23;;;;;;;11.97;9.33;;;4.50;99.90;;;;;;4990984;28;20199;-66
2021/01/11 09:07:53;;;;;;;12.57;9.10;;;4.30;99.90;;;;;;4990526;28;21007;-65
2021/01/11 09:10:18;;;;;;;13.80;10.60;;;4.40;99.90;;;;;;4991000;28;20195;-65
2021/01/11 09:12:44;;;;;;;11.70;9.00;;;4.60;1.00;;;;;;4990977;28;20635;-65
2021/01/11 09:15:11;;;;;;;13.47;10.50;;;4.90;1.00;;;;;;4990710;28;20183;-65
2021/01/11 09:17:36;;;;;;;14.55;10.40;;;5.10;1.00;;;;;;4990710;28;20423;-65
2021/01/11 09:20:05;;;;;;;14.20;11.57;;;5.20;99.90;;;;;;4990526;28;20542;-65
2021/01/11 09:22:41;;;;;;;13.73;10.50;;;5.70;99.90;;;;;;4990582;28;20187;-66
2021/01/11 09:25:10;;;;;;;12.70;10.27;;;5.70;1.00;;;;;;4990454;28;20181;-65
2021/01/11 09:27:37;;;;;;;12.63;9.70;;;5.70;99.90;;;;;;4990472;28;20184;-66
2021/01/11 09:30:05;;;;;;;14.00;10.33;;;6.00;1.00;;;;;;4988692;28;20181;-66
2021/01/11 09:32:31;;;;;;;10.70;8.80;;;6.30;99.90;;;;;;4990497;28;20561;-65
2021/01/11 09:34:56;;;;;;;11.90;9.87;;;6.50;1.00;;;;;;4989749;28;20883;-66
2021/01/11 09:37:22;;;;;;;11.57;10.27;;;6.70;99.90;;;;;;4989989;28;20183;-66
2021/01/11 09:39:48;;;;;;;10.90;9.40;;;7.00;1.00;;;;;;4989755;28;20230;-66
2021/01/11 09:42:14;;;;;;;12.90;9.80;;;7.20;1.00;;;;;;4990321;28;20180;-66
2021/01/11 09:44:41;;;;;;;11.50;10.00;;;7.70;1.00;;;;;;4989841;28;20187;-66
2021/01/11 09:47:07;;;;;;;11.20;9.83;;;7.90;1.00;;;;;;4990473;28;20502;-67
2021/01/11 09:49:33;;;;;;;11.57;9.90;;;8.10;1.00;;;;;;4989158;28;20534;-66
2021/01/11 09:51:59;;;;;;;11.87;10.00;;;8.60;1.00;;;;;;4989770;28;20638;-64
2021/01/11 09:54:24;;;;;;;10.73;9.63;;;8.80;99.90;;;;;;4989288;28;20514;-65
2021/01/11 09:56:50;;;;;;;11.30;9.63;;;9.00;99.90;;;;;;4989172;28;20588;-65
2021/01/11 09:59:16;;;;;;;12.27;10.70;;;9.20;99.90;;;;;;4988560;28;20267;-65
2021/01/11 10:01:44;;;;;;;12.10;9.80;;;8.90;99.90;;;;;;4984516;28;20215;-65
2021/01/11 10:04:11;;;;;;;11.90;9.90;;;9.50;99.90;;;;;;4988070;28;20621;-66
2021/01/11 10:06:46;;;;;;;10.83;9.73;;;9.90;99.90;;;;;;4988959;28;20502;-66
2021/01/11 10:09:26;;;;;;;12.00;10.00;;;10.30;99.90;;;;;;4999330;28;20988;-65
2021/01/11 10:11:56;;;;;;;10.13;9.13;;;10.50;99.90;;;;;;4987256;28;20788;-65
2021/01/11 10:14:22;;;;;;;11.10;10.00;;;10.40;99.90;;;;;;4988090;28;21159;-66
2021/01/11 10:16:49;;;;;;;12.23;10.67;;;10.30;99.90;;;;;;4988244;28;20510;-66
2021/01/11 10:19:23;;;;;;;11.40;10.20;;;10.40;99.90;;;;;;4987072;28;20426;-66
2021/01/11 10:21:49;;;;;;;11.60;10.03;;;10.40;99.90;;;;;;4988966;28;20419;-66
2021/01/11 10:24:16;;;;;;;10.80;9.70;;;10.30;99.90;;;;;;4986952;28;20415;-66
2021/01/11 10:26:46;;;;;;;12.10;10.47;;;10.20;99.90;;;;;;4989539;28;20422;-65
2021/01/11 10:29:13;;;;;;;10.27;9.27;;;10.60;99.90;;;;;;4986403;28;20455;-66
2021/01/11 10:31:40;;;;;;;10.13;9.13;;;10.20;99.90;;;;;;4989667;28;20431;-66
2021/01/11 10:34:06;;;;;;;11.43;9.40;;;9.30;99.90;;;;;;4987343;28;20524;-67
2021/01/11 10:36:43;;;;;;;10.97;9.63;;;9.60;99.90;;;;;;4988129;28;20427;-67
2021/01/11 10:39:09;;;;;;;8.10;7.30;;;9.60;99.90;;;;;;4985054;28;20196;-65
2021/01/11 10:41:35;;;;;;;9.70;8.67;;;9.60;99.90;;;;;;4988711;28;20465;-66
2021/01/11 10:44:01;;;;;;;7.43;6.60;;;10.00;99.90;;;;;;4988334;28;20427;-66
2021/01/11 10:46:27;;;;;;;5.87;5.30;;;9.80;99.90;;;;;;4989259;28;20186;-64
2021/01/11 10:48:53;;;;;;;6.60;5.90;;;8.90;99.90;;;;;;4988688;28;20247;-66
2021/01/11 10:51:22;;;;;;;6.80;6.10;;;8.40;99.90;;;;;;5003367;28;20183;-65
2021/01/11 10:53:49;;;;;;;7.40;6.43;;;8.10;99.90;;;;;;4988528;28;20960;-66
2021/01/11 10:56:17;;;;;;;6.13;5.53;;;7.70;99.90;;;;;;4988415;28;20425;-66
2021/01/11 10:58:43;;;;;;;6.47;5.70;;;7.40;99.90;;;;;;4987776;28;20430;-66
2021/01/11 11:01:12;;;;;;;6.50;5.90;;;7.30;99.90;;;;;;4988861;28;20773;-65
2021/01/11 11:03:38;;;;;;;10.57;8.30;;;6.70;99.90;;;;;;4987739;28;20185;-66
2021/01/11 11:06:04;;;;;;;6.23;5.63;;;6.20;99.90;;;;;;4989097;28;20251;-65
2021/01/11 11:08:30;;;;;;;7.13;6.05;;;5.90;99.90;;;;;;4986543;28;20189;-65
2021/01/11 11:10:56;;;;;;;6.30;5.70;;;5.50;99.90;;;;;;4988373;28;20192;-65
2021/01/11 11:13:22;;;;;;;7.10;6.27;;;5.60;99.90;;;;;;4983148;28;20222;-65
2021/01/11 11:15:47;;;;;;;7.00;6.30;;;5.60;99.90;;;;;;4989046;28;20275;-65
2021/01/11 11:18:14;;;;;;;7.20;6.50;;;5.70;99.90;;;;;;4988235;28;20219;-65
2021/01/11 11:20:41;;;;;;;7.68;6.68;;;5.60;99.90;;;;;;4988039;28;20184;-65
2021/01/11 11:23:07;;;;;;;6.63;6.03;;;5.40;99.90;;;;;;4987350;28;20219;-65
2021/01/11 11:25:33;;;;;;;7.00;6.25;;;5.40;99.90;;;;;;4991121;28;20271;-65
2021/01/11 11:27:59;;;;;;;9.38;8.13;;;5.50;99.90;;;;;;4988613;28;20199;-65
2021/01/11 11:30:25;;;;;;;8.17;7.10;;;5.80;99.90;;;;;;4988794;28;20192;-66
2021/01/11 11:32:51;;;;;;;9.27;7.40;;;6.00;99.90;;;;;;4987913;28;20252;-66
2021/01/11 11:35:18;;;;;;;8.50;7.30;;;6.30;99.90;;;;;;4987511;28;20882;-65
2021/01/11 11:37:44;;;;;;;7.53;6.53;;;6.60;99.90;;;;;;4986397;28;20185;-65
2021/01/11 11:40:11;;;;;;;7.32;6.63;;;6.50;99.90;;;;;;4987923;28;20234;-66
2021/01/11 11:42:40;;;;;;;11.20;7.88;;;5.90;99.90;;;;;;4987881;28;20284;-65
2021/01/11 11:45:11;;;;;;;13.05;8.95;;;5.30;99.90;;;;;;4987599;28;20192;-66
2021/01/11 11:47:38;;;;;;;11.95;9.30;;;4.80;99.90;;;;;;4975626;28;20188;-66
2021/01/11 11:50:06;;;;;;;11.52;7.70;;;4.40;1.00;;;;;;4986710;28;20250;-66
2021/01/11 11:52:32;;;;;;;8.75;7.50;;;4.20;1.00;;;;;;4988619;28;20203;-67
2021/01/11 11:54:58;;;;;;;10.17;7.60;;;3.90;1.00;;;;;;4990908;28;20550;-66
2021/01/11 11:57:24;;;;;;;6.88;5.95;;;3.60;1.00;;;;;;4992440;28;20433;-66
2021/01/11 11:59:49;;;;;;;9.90;7.03;;;3.60;1.00;;;;;;5006551;28;20192;-65
2021/01/11 12:02:15;;;;;;;10.20;8.60;;;3.40;1.00;;;;;;4989934;28;20717;-65
2021/01/11 12:04:41;;;;;;;11.83;8.53;;;3.30;1.00;;;;;;4981974;28;20262;-66
2021/01/11 12:07:07;;;;;;;10.57;8.63;;;3.20;1.00;;;;;;4991026;28;20187;-66
2021/01/11 12:09:33;;;;;;;10.63;8.10;;;3.20;1.00;;;;;;4989091;28;20179;-66
2021/01/11 12:12:00;;;;;;;9.23;8.00;;;3.10;1.00;;;;;;4991721;28;20429;-66
2021/01/11 12:14:25;;;;;;;9.00;7.68;;;3.10;1.00;;;;;;4991439;28;20200;-66
2021/01/11 12:16:51;;;;;;;8.73;7.83;;;3.20;1.00;;;;;;4991709;28;20229;-66
2021/01/11 12:19:18;;;;;;;7.97;7.18;;;3.10;1.00;;;;;;4991954;28;20263;-66
2021/01/11 12:21:44;;;;;;;11.50;8.48;;;3.10;1.00;;;;;;4991745;28;20325;-66
2021/01/11 12:24:10;;;;;;;7.95;7.18;;;3.10;23.00;;;;;;4991478;28;20179;-66
2021/01/11 12:26:44;;;;;;;8.55;7.20;;;3.10;1.00;;;;;;4991604;28;20549;-66
2021/01/11 12:29:11;;;;;;;10.98;7.97;;;3.00;1.00;;;;;;4987959;28;20183;-66
2021/01/11 12:31:37;;;;;;;9.27;7.13;;;3.00;99.90;;;;;;4991580;28;20547;-66
2021/01/11 12:34:03;;;;;;;9.10;7.47;;;3.20;99.90;;;;;;4992030;28;20217;-66
2021/01/11 12:36:30;;;;;;;7.20;6.25;;;3.10;99.90;;;;;;4992350;28;20447;-66
2021/01/11 12:38:57;;;;;;;8.07;6.95;;;3.20;1.00;;;;;;4992375;28;20194;-66
2021/01/11 12:41:24;;;;;;;7.20;6.40;;;3.10;1.00;;;;;;4991894;28;20240;-66
2021/01/11 12:43:51;;;;;;;7.88;6.38;;;3.00;1.00;;;;;;4992096;28;20253;-66